Weather at Melbourne International Airport

Public forecast

Using degrees Celsius for public forecast. Weather courtesy of forecast.io.

Current aviation weather report (METAR) for Melbourne International Airport

Retrieved 2022/08/12 18:00 UTC (16 minutes ago):

YMML 121800Z 14006KT 9999 4000SW BCFG NSC 07/07 Q1012

Aviation forecast (TAF) for Melbourne International Airport

Retrieved 2022/08/12 15:46 UTC (3 hours ago):

TAF YMML 121418Z 1215/1318 35004KT 9999 -SHRA NSC FM130200 16010KT 9999 -SHRA SCT040 FM131200 22008KT 9999 -SHRA BKN010 FM131600 25010KT 9999 NSW SCT020 INTER 1303/1309 5000 SHRA BKN020 SCT030TCU